NWS Home NWS Lubbock West Texas Mesonet Three hour changes as of 0807 PM, Wed Jul 17, 2019

Latest   N   C   S   Daily Sum   3hrΔ   24hrΔ   Soil Data 
Site Map   24hr Precip   72hr Precip   Google Plot


Station Time of Last Temp Now Temp 3h ago Delta-T Dewpoint Now Dewpoint 3hr ago Delta-Td 3hr Press Change (mB)
Reese Center  08:00 PM 92.2 97.3 -5.1 54.3 54.4 -0.1 -0.6
Abernathy  08:00 PM 92 95.8 -3.9 52.9 54.7 -1.8 -1
Plainview  08:00 PM 91.5 95.1 -3.6 56 57 -1 -1
Tahoka  08:00 PM 92.4 97.9 -5.5 56.8 57.3 -0.5 -0.5
Slaton  08:00 PM 92.2 96.6 -4.5 56.2 57.5 -1.3 -0.7
Levelland  08:00 PM 90.1 95.2 -5.2 55.6 55 0.7 -0.7
Roaring Springs  08:00 PM 90.9 95.5 -4.6 61.7 63.1 -1.5 -0.8
Floydada  08:00 PM 91.1 96 -4.9 56 57.2 -1.2 -0.9
Ralls  08:00 PM 91.4 95.9 -4.6 54.8 57.8 -2.9 -0.8
Brownfield  04:05 PM M 91.7 M -17966.2 60.5 M M
Muleshoe  08:00 PM 88.3 95.6 -7.3 53.2 53.4 -0.1 -1.2
Morton  08:00 PM 89.9 96.7 -6.8 52 49.3 2.7 -0.8
O'Donnell  08:00 PM 92.3 96.4 -4.1 53.1 48.5 4.6 -0.6
Seagraves  08:00 PM 92.4 96.4 -4 56.7 58.2 -1.5 -0.5
Amherst  08:00 PM 88.7 93 -4.3 56.6 57 -0.4 -1.2
Plains  08:00 PM 91.1 95.5 -4.4 57.1 52.3 4.8 -0.6
Lamesa  08:00 PM 92 95.8 -3.8 59.8 57 2.9 -0.6
Hart  08:00 PM 89.1 95.3 -6.3 55.5 51.7 3.8 -1.3
Friona  08:00 PM 91 95.2 -4.2 53.1 54.8 -1.6 -1.1
Dimmitt  08:00 PM 91.6 96.3 -4.6 55 53.6 1.4 -1.2
Tulia  08:00 PM 91.5 95.4 -3.9 55.3 54.4 1 -1.1
Silverton  08:00 PM 91.9 97.5 -5.6 57.2 55.2 2 -0.9
Post  08:00 PM 93 98.3 -5.3 56.6 55.8 0.8 -0.6
Seminole  08:00 PM 92.1 96.8 -4.7 54.3 52.3 2 -0.4
Gail  08:00 PM 93 98.8 -5.8 58.4 54.1 4.3 -0.5
White River Lake  08:00 PM 92.7 96.7 -4 58 59.1 -1.1 -0.7
Graham  08:00 PM 92.5 95.5 -3 56.3 55.6 0.8 -0.5
Sundown  08:00 PM 88.5 94.4 -5.9 55.7 55.1 0.6 -0.7
Anton  08:00 PM 91.8 96.3 -4.5 53.6 54.3 -0.7 -0.8
Fluvanna  08:00 PM 91.2 95.4 -4.2 61.1 58.7 2.4 -0.5
Spur  08:00 PM 94.3 98.8 -4.6 59.4 59.4 0.1 -0.6
Northwest Lubbock  08:00 PM 93 97.4 -4.3 51.4 52.3 -0.9 -0.6
Guthrie  08:00 PM 93.7 99.1 -5.4 56.1 59.5 -3.3 -0.6
Clarendon  08:00 PM 93.9 99.9 -6 57.5 51.6 5.9 -1
Paducah  08:00 PM 93 98.2 -5.2 57.9 61 -3.1 -0.7
Snyder  08:00 PM 91.1 96 -5 59.9 60.6 -0.7 -0.7
Memphis  08:00 PM 94.6 98.6 -4.1 59.6 60 -0.4 -0.9
Jayton  08:00 PM 92.5 97.7 -5.1 62.5 61.3 1.3 -0.7
Pampa  08:00 PM 92.1 97.5 -5.4 58.5 56.7 1.8 -0.9
Aspermont  08:00 PM 93.8 98.9 -5.1 63.8 62.6 1.2 -0.7
Hereford  08:00 PM 91.1 94.8 -3.8 53.4 55.8 -2.4 -1.1
Goodlett  08:00 PM 96.1 101.8 -5.7 61 62.1 -1.2 -0.7
McLean  08:00 PM 91.3 95 -3.7 61.6 61.4 0.3 -0.9
Denver City  08:00 PM 89.1 96.2 -7.1 51.9 48.8 3.2 0.1
Lake Alan Henry  08:00 PM 93 97.4 -4.5 64 62.2 1.9 -0.5
Wolfforth  08:00 PM 92.1 96.7 -4.6 54.8 53.7 1.1 -0.5
Andrews  08:00 PM 93.1 96.4 -3.3 56.9 55.2 1.7 -0.5
Turkey  08:00 PM 94.2 99.5 -5.3 60 59.7 0.3 -0.6
Childress  08:00 PM 94.2 97.7 -3.5 58.4 60 -1.6 -1
Tatum  08:00 PM 79.2 98.8 -19.6 55.2 51.1 4.1 0.5
Northfield  08:00 PM 94.7 99.8 -5.1 58.1 59.1 -1 -0.9
Dora  08:00 PM 82 87.2 -5.2 64.4 56.1 8.3 -1
Northwest San Angelo  08:00 PM 91.7 95.3 -3.5 58.9 60.3 -1.5 -0.9
Saint Lawrence  08:00 PM 90.7 94.1 -3.4 60.4 61.5 -1.1 -0.4
Haskell  08:00 PM 92.6 96.7 -4.2 63.1 62.8 0.4 -0.9
Wall  08:00 PM 92.6 95.8 -3.3 64.3 64.8 -0.5 -0.9
Seymour  08:00 PM 92.3 96.2 -3.9 65.8 66.7 -0.9 -1
Knox City  08:00 PM 96.2 100.2 -4 62.7 63.2 -0.5 -0.9
Guadalupe Mtns Park  08:00 PM 81.4 84 -2.6 51.8 49.5 2.3 -0.2
Caprock Canyons   08:00 PM 93 98.9 -5.8 58 55 3 -0.7
Odell  08:00 PM 93.5 98.3 -4.8 65.8 65.9 -0.1 -0.8
Coyanosa  08:00 PM 86.1 88.8 -2.6 60.7 60.8 -0.1 -0.1
Big Lake  04:42 AM 73 78 -5 65.8 64 1.8 -0.3
Junction  08:00 PM 91.3 95.7 -4.4 65.7 64.9 0.8 -0.6
Hobbs  08:00 PM 80.5 96.9 -16.4 60.9 51.1 9.8 1.1
Canadian  08:00 PM 93 98.7 -5.7 64.5 62.1 2.4 -0.8
Palo Duro Canyon State Park Rim  08:00 PM 93.3 98.5 -5.3 56 57.1 -1.1 -0.9
Bootleg  08:00 PM 89.8 94.7 -4.9 55.7 56.5 -0.8 -0.9
Sterling City  08:00 PM 92.6 95.6 -3 59.1 63.7 -4.6 -0.5
Mertzon  08:00 PM 91 94.7 -3.7 63.5 64 -0.5 -0.7
Persimmon Gap  08:00 PM 74.1 77.6 -3.5 64.6 64.6 -0.1 1
Weinert  08:00 PM 93.8 99 -5.2 65 65.1 -0.1 -0.8
Claude 12 Southwest  08:00 PM 93.2 96.7 -3.5 55.3 54.1 1.2 -1
Amarillo 7 South Southeast  08:00 PM 91.6 96.8 -5.2 53.6 57.4 -3.8 -1
Umbarger  08:00 PM 91.7 96.4 -4.7 55.3 58.2 -3 -1
Lomax  08:00 PM 93.7 97.3 -3.6 60 60.4 -0.4 -0.4
Amarillo 9 North Northeast  08:00 PM 92.5 96.4 -3.9 56.1 61.6 -5.6 -1.2
Aiken  08:00 PM 90.7 94.7 -4 61.1 59.3 1.7 -0.9
Sweetwater  08:00 PM 89.6 93.7 -4.2 62.3 63.1 -0.7 -0.6
Dozier  08:00 PM 95.2 100.7 -5.5 64 64.3 -0.3 -0.9
Amarillo 15 North Northwest  08:00 PM 94.4 98.7 -4.3 55.6 61.1 -5.5 -1.1
Menard  08:00 PM 89.6 93.5 -4 67.6 65.5 2.1 -0.6
Tarzan  08:00 PM 92.9 97.4 -4.5 64 61.6 2.4 -0.5
Goodnight  08:00 PM 93.9 97.8 -4 59.4 55.2 4.2 -1
Boys Ranch   08:00 PM 94.2 99.2 -5.1 57.2 59.3 -2.1 -0.8
Fort McKavett  08:00 PM 90.4 94.3 -3.9 64.3 65.8 -1.5 -0.7
Fort Chadbourne  08:00 PM 91.2 94 -2.7 64.4 65.5 -1.1 -0.9
Palo Duro Canyon State Park Floor  08:00 PM 96.7 100.8 -4.1 57.5 56.9 0.6 -0.8
Fort Lancaster  08:00 PM 92 96.5 -4.5 64 66.7 -2.7 0
Dell City 1N  08:00 PM 87.2 96.8 -9.6 58.2 53.5 4.7 0.1
Clyde  08:00 PM 90.2 93.6 -3.4 64.1 66.7 -2.6 -0.9
Snyder SSW  08:00 PM 92.4 96.5 -4.2 60.9 64.1 -3.2 -0.6
Panhandle  08:00 PM 88.9 96 -7.1 58.7 60 -1.3 -0.9
Vigo Park  08:00 PM 92.2 98.1 -5.9 57.5 56.7 0.8 -1
Welch  08:00 PM 92.1 95.8 -3.7 61.5 59.9 1.6 -0.6
Throckmorton  08:00 PM 92.3 95.6 -3.3 67.9 68 -0.1 -1.2
Sierra Blanca  08:00 PM 82 93.7 -11.7 56.9 52 4.9 -0.7
Fort Lewis CO  08:00 PM 78 83.2 -5.1 36.1 39.2 -3.1 -0.9
New Home  08:00 PM 92.8 96 -3.2 56.8 58.5 -1.6 -0.5
McCamey  08:00 PM 93 97.1 -4 64.1 66.1 -2 0
Stamford  08:00 PM 94.1 97.8 -3.7 64.7 65.7 -1.1 -0.9
Crowell  08:00 PM 93.9 99.8 -5.9 67.3 64.8 2.5 -0.9
Stinnett  08:00 PM 93.5 97.5 -4 54.9 60.4 -5.5 -0.8
Colorado City  08:00 PM 92.2 96.4 -4.2 61.2 66.5 -5.3 -0.6
Happy  08:00 PM 92.1 97 -4.9 53.7 54.7 -1 -0.9
Endee  08:00 PM 93.1 98.6 -5.5 57.7 56.5 1.2 -1.2
JA Ranch  08:00 PM 96.4 102.4 -6 61 56.4 4.6 -1
Adrian  08:00 PM 91.6 95.2 -3.6 55.9 55.2 0.7 -1.1
Lesley  08:00 PM 96.1 101.9 -5.8 63.1 62 1.2 -0.8
Earth  08:00 PM 89.9 96.2 -6.3 55.1 56.6 -1.5 -1.2
Van Horn  08:00 PM 74.9 95.8 -20.9 68.6 52.8 15.8 0.7
Rotan  08:00 PM 92.3 97 -4.6 64 64.5 -0.5 -0.5
Fritch  08:00 PM 95 98.8 -3.8 54.5 58.9 -4.4 -0.9
Estelline  08:00 PM 95.7 100.8 -5 61.6 64.1 -2.5 -0.8
Crane  08:00 PM 92.1 100.4 -8.4 62.3 65.9 -3.6 0.1
Hackberry  08:00 PM 94.3 98.8 -4.5 64.7 65.1 -0.4 -1
Romero 11 SSW  08:00 PM 95.7 99 -3.3 56.7 58 -1.3 -0.9
Palo Duro Reservoir 1NW  08:00 PM 94.2 99.9 -5.8 58 61 -3.1 -0.7
South Plains 3ENE  08:00 PM 91.2 96.1 -4.9 60.3 60.2 0.1 -0.7
Lake McClellan 2NW  08:00 PM 90.3 95.4 -5.1 61.3 59.5 1.8 -0.9
Segovia 7SSW  08:00 PM 87.9 91.9 -4 65.2 64.2 1 -0.8
Castolon 1NW BBNP  08:00 PM 77.3 104.3 -27.1 67.4 57.6 9.8 3.9
Smyer  08:00 PM 91.5 95.5 -4 55.7 56.8 -1.1 -0.6
Olton  08:00 PM 90.3 95.5 -5.2 53.6 52.3 1.3 -0.9

West Texas Mesonet Home   Site Map/Menu  NWS Lubbock Soil Data  Daily Summary Page  24hr Precip  72hr Precip  Google Plot